Odesskoe, Russia
Current Conditions -  °F | °C
As of 1:30 PM on Saturday 25 Oct 2014 (Local Time) from UNOO Reporting Station
Blowing Snow Blowing Snow  
Wind Chill:   Ceiling: 700
Heat Index: 19°   Visibility: 1.8mi
Dew Point: 12°   Wind: 18mph
Humidity: 74%   Direction: 240°WSW
Pressure: 29.77"   Gusts: 25mph
Location:  54.2°N, 72.97°E
Report Text: UNOO 250730Z 24008G11MPS 2900 -SHSN BLSN BKN007 BKN026CBM07/M11 Q1008 25820550 TEMPO 1000 SHSN BLSN BKN007 RMK OBST PT OBSCQFE748
Loading
Personal Weather Stations






























Interactive Weather Map
Tropical Storm Tracking
New forecast layout! Learn more

10-Day Weather Forecast

Advertisements
Track Severe Weather on mobile